Time;durP1;ratioP1;P1;durP2;ratioP2;P2;SDS_P1;SDS_P2;PMS_P1;PMS_P2;Temp;Humidity;BMP_temperature;BMP_pressure;BME280_temperature;BME280_humidity;BME280_pressure;Samples;Min_cycle;Max_cycle;Signal;HPM_P1;HPM_P2
2023/07/18 00:00:18;;;;;;;12.63;4.55;;;;;;;14.60;100.00;102028.25;4877749;29;20060;-77
2023/07/18 00:02:45;;;;;;;8.65;3.80;;;;;;;14.57;100.00;102025.59;4878162;29;20394;-77
2023/07/18 00:05:13;;;;;;;9.35;4.25;;;;;;;14.52;100.00;102029.94;4839873;29;20400;-78
2023/07/18 00:07:44;;;;;;;7.07;4.78;;;;;;;14.51;100.00;102027.28;4869338;29;20138;-78
2023/07/18 00:10:12;;;;;;;9.30;3.80;;;;;;;14.51;100.00;102025.50;4876779;29;20063;-78
2023/07/18 00:12:40;;;;;;;8.55;4.55;;;;;;;14.52;100.00;102021.97;4885796;29;20067;-78
2023/07/18 00:15:09;;;;;;;8.25;3.70;;;;;;;14.54;100.00;102022.00;4892539;29;20040;-78
2023/07/18 00:17:37;;;;;;;8.63;3.70;;;;;;;14.54;100.00;102016.69;4893728;29;20544;-78
2023/07/18 00:20:10;;;;;;;14.07;4.60;;;;;;;14.54;100.00;102011.38;4853532;29;20048;-78
2023/07/18 00:22:37;;;;;;;13.23;4.18;;;;;;;14.53;100.00;102017.56;4883568;29;20048;-78
2023/07/18 00:25:05;;;;;;;10.48;3.78;;;;;;;14.52;100.00;102014.03;4891453;29;20543;-78
2023/07/18 00:27:33;;;;;;;8.70;3.47;;;;;;;14.52;100.00;102018.44;4868706;29;20044;-78
2023/07/18 00:30:01;;;;;;;11.30;3.45;;;;;;;14.49;100.00;102019.31;4890568;29;20045;-78
2023/07/18 00:32:29;;;;;;;10.55;4.57;;;;;;;14.50;100.00;102017.53;4892929;29;20048;-77
2023/07/18 00:34:56;;;;;;;9.43;3.13;;;;;;;14.49;100.00;102008.69;4890166;29;20456;-78
2023/07/18 00:37:23;;;;;;;11.18;3.72;;;;;;;14.49;100.00;102007.81;4840851;29;20060;-77
2023/07/18 00:39:52;;;;;;;11.75;3.88;;;;;;;14.48;100.00;102012.25;4862062;29;20085;-78
2023/07/18 00:42:20;;;;;;;9.30;4.10;;;;;;;14.47;100.00;102014.88;4884771;29;20060;-78
2023/07/18 00:44:51;;;;;;;10.40;4.53;;;;;;;14.48;100.00;102006.03;4866718;29;20040;-78
2023/07/18 00:47:19;;;;;;;14.13;5.05;;;;;;;14.47;100.00;102004.28;4892753;29;20508;-78
2023/07/18 00:49:46;;;;;;;7.18;3.80;;;;;;;14.45;100.00;102006.91;4876385;29;20061;-78
2023/07/18 00:52:14;;;;;;;6.70;3.13;;;;;;;14.43;100.00;102009.53;4834604;29;20259;-78
2023/07/18 00:54:48;;;;;;;7.25;3.45;;;;;;;14.41;100.00;102005.13;4880887;29;20501;-78
2023/07/18 00:57:15;;;;;;;12.70;4.95;;;;;;;14.39;100.00;102013.06;4893247;29;20048;-78
2023/07/18 00:59:43;;;;;;;7.20;3.65;;;;;;;14.37;100.00;102009.50;4882767;29;20138;-78
2023/07/18 01:02:11;;;;;;;12.25;4.03;;;;;;;14.35;100.00;102003.31;4874204;29;20500;-78
2023/07/18 01:04:41;;;;;;;12.38;4.30;;;;;;;14.32;100.00;101995.34;4903024;29;20056;-77
2023/07/18 01:07:08;;;;;;;10.70;3.90;;;;;;;14.31;100.00;101996.22;4852791;29;20068;-77
2023/07/18 01:09:35;;;;;;;9.32;4.20;;;;;;;14.30;100.00;101997.09;4874818;29;20706;-78
2023/07/18 01:12:03;;;;;;;7.78;3.97;;;;;;;14.27;100.00;102002.38;4875637;29;20055;-78
2023/07/18 01:14:31;;;;;;;7.85;3.72;;;;;;;14.24;100.00;101995.28;4867070;29;20045;-78
2023/07/18 01:17:01;;;;;;;11.60;4.25;;;;;;;14.22;100.00;101993.53;4875654;29;20500;-78
2023/07/18 01:19:29;;;;;;;9.55;3.80;;;;;;;14.19;100.00;102004.09;4889446;29;20075;-78
2023/07/18 01:21:57;;;;;;;11.68;4.63;;;;;;;14.16;100.00;101997.00;4884004;29;20056;-78
2023/07/18 01:24:25;;;;;;;6.90;3.63;;;;;;;14.14;100.00;101992.56;4849368;29;20053;-77
2023/07/18 01:26:52;;;;;;;13.40;4.10;;;;;;;14.12;100.00;101995.22;4885222;29;20051;-77
2023/07/18 01:29:20;;;;;;;10.63;3.60;;;;;;;14.10;100.00;101996.06;4865035;29;20040;-78
2023/07/18 01:31:48;;;;;;;9.43;4.10;;;;;;;14.08;100.00;101995.19;4884299;29;20053;-78
2023/07/18 01:34:15;;;;;;;11.95;3.83;;;;;;;14.06;100.00;101991.63;4892497;29;20122;-78
2023/07/18 01:36:44;;;;;;;9.63;3.90;;;;;;;14.04;100.00;101997.81;4889059;29;20056;-78
2023/07/18 01:39:11;;;;;;;7.93;3.67;;;;;;;14.03;100.00;101993.38;4839523;29;20052;-79
2023/07/18 01:41:39;;;;;;;12.82;4.57;;;;;;;14.03;100.00;101995.16;4890720;29;20053;-78
2023/07/18 01:44:08;;;;;;;9.02;3.80;;;;;;;14.02;100.00;101990.72;4852125;29;20648;-78
2023/07/18 01:46:35;;;;;;;9.30;3.90;;;;;;;14.00;100.00;101988.06;4866708;29;20056;-78
2023/07/18 01:49:03;;;;;;;11.65;4.85;;;;;;;14.00;100.00;101993.34;4887828;29;20056;-77
2023/07/18 01:51:30;;;;;;;11.18;3.80;;;;;;;13.99;100.00;101985.41;4876845;29;20041;-78
2023/07/18 01:53:57;;;;;;;9.90;3.88;;;;;;;13.98;100.00;101984.50;4832959;29;20060;-78
2023/07/18 01:56:25;;;;;;;6.55;3.50;;;;;;;13.96;100.00;101983.59;4870898;29;20056;-78
2023/07/18 01:58:52;;;;;;;7.93;3.67;;;;;;;13.92;100.00;101979.16;4864922;29;20048;-78
2023/07/18 02:01:20;;;;;;;16.08;5.15;;;;;;;13.90;100.00;101986.22;4893969;29;20055;-78
2023/07/18 02:03:48;;;;;;;11.00;3.60;;;;;;;13.90;100.00;101982.69;4885775;29;20083;-78
2023/07/18 02:06:16;;;;;;;10.77;4.40;;;;;;;13.88;100.00;101976.50;4896389;29;20088;-78
2023/07/18 02:08:43;;;;;;;11.90;4.50;;;;;;;13.85;100.00;101985.28;4863340;29;20083;-78
2023/07/18 02:11:10;;;;;;;11.05;4.18;;;;;;;13.83;100.00;101977.31;4867772;29;20052;-77
2023/07/18 02:13:38;;;;;;;13.73;4.65;;;;;;;13.82;100.00;101974.69;4870520;29;20427;-78
2023/07/18 02:16:11;;;;;;;14.07;4.80;;;;;;;13.80;100.00;101973.78;4862569;29;20056;-78
2023/07/18 02:18:38;;;;;;;17.08;4.90;;;;;;;13.78;100.00;101970.22;4873466;29;20052;-78
2023/07/18 02:21:05;;;;;;;10.20;4.45;;;;;;;13.78;100.00;101968.47;4880926;29;20059;-78
2023/07/18 02:23:38;;;;;;;8.20;4.18;;;;;;;13.77;100.00;101964.03;4892853;29;20052;-78
2023/07/18 02:26:07;;;;;;;7.20;4.00;;;;;;;13.77;100.00;101960.50;4844803;29;20044;-78
2023/07/18 02:28:34;;;;;;;11.98;4.35;;;;;;;13.78;100.00;101967.56;4889092;29;20059;-78
2023/07/18 02:31:02;;;;;;;9.40;4.68;;;;;;;13.77;100.00;101960.50;4875490;29;20056;-78
2023/07/18 02:33:29;;;;;;;9.93;4.10;;;;;;;13.79;100.00;101967.59;4873212;29;20571;-78
2023/07/18 02:35:57;;;;;;;11.38;4.43;;;;;;;13.79;100.00;101962.28;4879608;29;20495;-78
2023/07/18 02:38:24;;;;;;;9.13;4.10;;;;;;;13.80;100.00;101963.19;4892217;29;20044;-77
2023/07/18 02:40:52;;;;;;;15.35;5.43;;;;;;;13.78;100.00;101971.13;4832557;29;20055;-78
2023/07/18 02:43:19;;;;;;;9.95;4.60;;;;;;;13.81;100.00;101980.84;4914277;29;20048;-78
2023/07/18 02:45:47;;;;;;;17.67;4.47;;;;;;;13.80;100.00;101977.31;4869340;29;20045;-78
2023/07/18 02:48:16;;;;;;;14.90;4.15;;;;;;;13.81;100.00;101979.06;4899925;29;20089;-78
2023/07/18 02:50:44;;;;;;;9.95;4.68;;;;;;;13.82;100.00;101983.50;4868918;29;20064;-78
2023/07/18 02:53:12;;;;;;;14.25;4.63;;;;;;;13.82;100.00;101983.50;4875216;29;20646;-78
2023/07/18 02:55:39;;;;;;;16.17;4.45;;;;;;;13.82;100.00;101978.22;4857784;29;20055;-78
2023/07/18 02:58:08;;;;;;;13.48;5.03;;;;;;;13.81;100.00;101980.84;4896895;29;20057;-78
2023/07/18 03:00:36;;;;;;;9.95;4.13;;;;;;;13.80;100.00;101984.38;4866557;29;20061;-78
2023/07/18 03:03:03;;;;;;;9.15;4.63;;;;;;;13.78;100.00;101973.78;4864454;29;20060;-78
2023/07/18 03:05:33;;;;;;;14.48;4.22;;;;;;;13.75;100.00;101975.50;4872863;29;20048;-78
2023/07/18 03:08:00;;;;;;;12.35;5.03;;;;;;;13.73;100.00;101974.63;4884636;29;20281;-78
2023/07/18 03:10:28;;;;;;;12.15;4.00;;;;;;;13.70;100.00;101970.16;4862726;29;20048;-78
2023/07/18 03:12:55;;;;;;;13.95;4.20;;;;;;;13.70;100.00;101971.94;4876489;29;20424;-78
2023/07/18 03:15:23;;;;;;;15.73;7.47;;;;;;;13.70;100.00;101972.81;4872322;29;20057;-78
2023/07/18 03:17:50;;;;;;;18.92;6.45;;;;;;;13.71;100.00;101973.72;4884477;29;20059;-78
2023/07/18 03:20:19;;;;;;;13.63;5.35;;;;;;;13.71;100.00;101971.94;4884888;29;20055;-78
2023/07/18 03:22:50;;;;;;;14.95;4.88;;;;;;;13.70;100.00;101977.22;4873820;29;20052;-78
2023/07/18 03:25:19;;;;;;;13.23;5.40;;;;;;;13.70;100.00;101972.81;4889719;29;20049;-78
2023/07/18 03:27:47;;;;;;;15.40;4.38;;;;;;;13.71;100.00;101984.31;4853093;29;20056;-78
2023/07/18 03:30:16;;;;;;;14.70;4.53;;;;;;;13.71;100.00;101981.66;4886639;29;20052;-78
2023/07/18 03:32:43;;;;;;;18.38;4.70;;;;;;;13.73;100.00;101979.91;4885135;29;20662;-78
2023/07/18 03:35:11;;;;;;;14.20;4.30;;;;;;;13.72;100.00;101980.78;4852222;29;20064;-77
2023/07/18 03:37:39;;;;;;;14.07;4.30;;;;;;;13.72;100.00;101975.47;4891052;29;20550;-78
2023/07/18 03:40:06;;;;;;;12.05;4.35;;;;;;;13.72;100.00;101975.47;4876616;29;20052;-78
2023/07/18 03:42:34;;;;;;;13.18;4.40;;;;;;;13.72;100.00;101979.00;4858733;29;20056;-78
2023/07/18 03:45:02;;;;;;;11.55;4.78;;;;;;;13.73;100.00;101966.66;4876448;29;20047;-78
2023/07/18 03:47:30;;;;;;;11.77;4.78;;;;;;;13.73;100.00;101971.97;4884943;29;20057;-78
2023/07/18 03:49:57;;;;;;;11.02;4.00;;;;;;;13.74;100.00;101965.78;4901740;29;20057;-77
2023/07/18 03:52:25;;;;;;;11.55;4.57;;;;;;;13.75;100.00;101975.50;4886423;29;20496;-80
2023/07/18 03:54:52;;;;;;;10.55;4.40;;;;;;;13.74;100.00;101974.63;4877823;29;20060;-78
2023/07/18 03:57:20;;;;;;;7.85;4.05;;;;;;;13.74;100.00;101976.38;4838577;29;20049;-79
2023/07/18 03:59:47;;;;;;;19.02;5.05;;;;;;;13.77;100.00;101984.34;4862238;29;20072;-78
2023/07/18 04:02:15;;;;;;;9.70;5.00;;;;;;;13.77;100.00;101984.34;4881743;29;20060;-79
2023/07/18 04:04:42;;;;;;;18.92;4.22;;;;;;;13.79;100.00;101979.94;4881544;29;20051;-78
2023/07/18 04:07:09;;;;;;;11.45;4.80;;;;;;;13.80;100.00;101982.63;4882733;29;20091;-79
2023/07/18 04:09:37;;;;;;;14.35;5.07;;;;;;;13.82;100.00;101980.88;4898729;29;20424;-78
2023/07/18 04:12:05;;;;;;;12.15;5.05;;;;;;;13.85;100.00;101980.00;4881328;29;20423;-77
2023/07/18 04:14:35;;;;;;;13.75;5.28;;;;;;;13.87;100.00;101980.88;4852080;29;20052;-77
2023/07/18 04:17:04;;;;;;;11.35;4.72;;;;;;;13.89;100.00;101978.25;4864946;29;20048;-78
2023/07/18 04:19:31;;;;;;;12.38;4.97;;;;;;;13.91;100.00;101974.72;4867206;29;20056;-77
2023/07/18 04:21:59;;;;;;;11.57;5.10;;;;;;;13.98;100.00;101973.91;4880111;29;20818;-77
2023/07/18 04:24:26;;;;;;;13.65;4.82;;;;;;;14.17;100.00;101974.91;4870411;29;20053;-77
2023/07/18 04:26:54;;;;;;;14.48;4.53;;;;;;;14.33;100.00;101973.25;4880396;29;20056;-77
2023/07/18 04:29:21;;;;;;;15.60;4.40;;;;;;;14.45;100.00;101977.72;4845462;29;20496;-77
2023/07/18 04:31:48;;;;;;;11.68;4.53;;;;;;;14.55;100.00;101978.66;4890186;29;20083;-77
2023/07/18 04:34:16;;;;;;;8.70;3.75;;;;;;;14.59;100.00;101972.53;4873111;29;20052;-77
2023/07/18 04:36:44;;;;;;;13.32;4.07;;;;;;;14.59;100.00;101976.09;4868890;29;20061;-77
2023/07/18 04:39:12;;;;;;;13.27;5.18;;;;;;;14.60;100.00;101974.31;4877426;29;20055;-78
2023/07/18 04:41:39;;;;;;;14.20;4.68;;;;;;;14.64;100.00;101976.09;4877864;29;20072;-77
2023/07/18 04:44:21;;;;;;;13.85;5.03;;;;;;;14.76;100.00;101975.25;4851989;29;20044;-78
2023/07/18 04:46:48;;;;;;;10.35;4.47;;;;;;;14.99;100.00;101975.34;4883538;29;20041;-78
2023/07/18 04:49:16;;;;;;;10.45;5.78;;;;;;;15.33;100.00;101963.03;4862486;29;20087;-78
2023/07/18 04:51:44;;;;;;;12.57;5.30;;;;;;;15.83;100.00;101961.28;4865579;29;20660;-79
2023/07/18 04:54:11;;;;;;;11.32;3.67;;;;;;;16.10;100.00;101972.75;4850927;29;20045;-79
2023/07/18 04:56:39;;;;;;;9.75;4.20;;;;;;;16.16;100.00;101971.00;4877459;29;20056;-78
2023/07/18 04:59:07;;;;;;;9.43;3.95;;;;;;;16.17;100.00;101975.41;4832697;29;20052;-79
2023/07/18 05:01:36;;;;;;;14.10;4.20;;;;;;;16.26;100.00;101973.63;4864834;29;20420;-78
2023/07/18 05:04:05;;;;;;;7.68;4.40;;;;;;;16.44;100.00;101967.38;4880357;29;20056;-79
2023/07/18 05:06:32;;;;;;;9.70;3.58;;;;;;;16.64;100.00;101967.31;4881435;29;20063;-78
2023/07/18 05:08:59;;;;;;;11.13;3.88;;;;;;;17.03;100.00;101970.66;4863515;29;20059;-78
2023/07/18 05:11:27;;;;;;;12.02;3.80;;;;;;;17.26;100.00;101967.88;4861502;29;20044;-78
2023/07/18 05:13:54;;;;;;;9.13;3.58;;;;;;;17.21;100.00;101975.03;4902037;29;20052;-78
2023/07/18 05:16:22;;;;;;;13.13;4.18;;;;;;;17.09;100.00;101968.00;4822150;29;20056;-78
2023/07/18 05:18:49;;;;;;;8.57;3.80;;;;;;;16.90;100.00;101972.50;4902875;29;20063;-78
2023/07/18 05:21:17;;;;;;;10.57;4.30;;;;;;;16.76;100.00;101977.88;4876888;29;20368;-78
2023/07/18 05:23:45;;;;;;;8.48;4.05;;;;;;;16.63;100.00;101978.81;4872692;29;20061;-78
2023/07/18 05:26:13;;;;;;;8.77;3.95;;;;;;;16.51;100.00;101979.75;4876297;29;20052;-78
2023/07/18 05:28:40;;;;;;;18.45;4.72;;;;;;;16.42;100.00;101985.09;4894189;29;20060;-79
2023/07/18 05:31:08;;;;;;;10.05;4.00;;;;;;;16.33;100.00;101986.91;4834819;29;20426;-78
2023/07/18 05:33:35;;;;;;;8.00;4.47;;;;;;;16.26;100.00;101994.91;4893610;29;20193;-78
2023/07/18 05:36:04;;;;;;;13.32;4.45;;;;;;;16.21;100.00;101988.72;4876049;29;20048;-78
2023/07/18 05:38:31;;;;;;;11.48;4.53;;;;;;;16.20;100.00;101986.91;4854820;29;20093;-78
2023/07/18 05:40:59;;;;;;;16.33;4.55;;;;;;;16.17;100.00;101982.50;4874367;29;20048;-78
2023/07/18 05:43:26;;;;;;;12.55;4.68;;;;;;;16.17;100.00;101977.19;4882983;29;20040;-78
2023/07/18 05:45:53;;;;;;;11.32;4.85;;;;;;;16.22;100.00;101979.81;4829199;29;20080;-78
2023/07/18 05:48:21;;;;;;;12.85;4.40;;;;;;;16.29;100.00;101973.59;4871868;29;20052;-78
2023/07/18 05:50:48;;;;;;;10.70;4.43;;;;;;;16.47;100.00;101970.91;4874031;29;20496;-78
2023/07/18 05:53:16;;;;;;;9.63;4.45;;;;;;;16.65;100.00;101974.38;4880435;29;20052;-78
2023/07/18 05:55:43;;;;;;;14.43;4.22;;;;;;;16.73;100.00;101969.94;4883603;29;20055;-78
2023/07/18 05:58:13;;;;;;;12.57;5.25;;;;;;;16.81;100.00;101978.75;4891844;29;20492;-79
2023/07/18 06:00:41;;;;;;;11.15;3.72;;;;;;;16.83;100.00;101981.44;4892352;29;20052;-78
2023/07/18 06:03:09;;;;;;;10.40;4.57;;;;;;;16.82;100.00;101976.97;4833855;29;20075;-78
2023/07/18 06:05:36;;;;;;;9.77;4.20;;;;;;;16.81;100.00;101978.75;4858896;29;20053;-78
2023/07/18 06:08:05;;;;;;;14.07;4.45;;;;;;;16.82;100.00;101977.88;4879211;29;20056;-78
2023/07/18 06:10:32;;;;;;;11.63;4.68;;;;;;;16.80;100.00;101976.97;4850037;29;20053;-78
2023/07/18 06:13:00;;;;;;;9.52;4.28;;;;;;;16.78;100.00;101978.75;4838165;29;20060;-77
2023/07/18 06:15:27;;;;;;;14.00;4.18;;;;;;;16.78;100.00;101986.75;4875966;29;20115;-79
2023/07/18 06:17:55;;;;;;;16.25;4.65;;;;;;;16.76;100.00;101992.06;4846931;29;20060;-78
2023/07/18 06:20:22;;;;;;;11.32;5.03;;;;;;;16.77;100.00;101984.97;4851337;29;20040;-79
2023/07/18 06:22:50;;;;;;;8.18;4.03;;;;;;;16.74;100.00;101985.88;4887620;29;20065;-78
2023/07/18 06:25:17;;;;;;;12.82;4.43;;;;;;;16.76;100.00;101985.88;4853245;29;20060;-79
2023/07/18 06:27:45;;;;;;;16.13;5.10;;;;;;;16.78;100.00;101984.06;4874102;29;20067;-77
2023/07/18 06:30:12;;;;;;;15.15;4.55;;;;;;;16.80;100.00;101986.75;4870162;29;20053;-78
2023/07/18 06:32:39;;;;;;;10.45;4.45;;;;;;;16.83;100.00;101984.09;4840981;29;20060;-78
2023/07/18 06:35:08;;;;;;;12.02;4.95;;;;;;;16.88;100.00;101990.28;4875406;29;20041;-79
2023/07/18 06:37:50;;;;;;;11.80;4.50;;;;;;;16.94;100.00;101998.25;4892818;29;20045;-78
2023/07/18 06:40:18;;;;;;;13.68;5.30;;;;;;;16.99;100.00;102003.53;4842874;29;20063;-79
2023/07/18 06:42:45;;;;;;;11.52;4.80;;;;;;;17.00;100.00;101995.56;4892991;29;20056;-79
2023/07/18 06:45:14;;;;;;;12.57;4.95;;;;;;;17.02;100.00;101998.22;4854404;29;20061;-79
2023/07/18 06:47:42;;;;;;;11.98;4.95;;;;;;;17.02;100.00;102001.75;4889966;29;20053;-79
2023/07/18 06:50:10;;;;;;;12.68;4.72;;;;;;;17.07;100.00;102005.28;4851616;29;20044;-79
2023/07/18 06:52:38;;;;;;;13.88;4.97;;;;;;;17.07;100.00;102005.28;4847822;29;20205;-79
2023/07/18 06:55:10;;;;;;;11.48;4.88;;;;;;;17.08;100.00;102008.81;4881732;29;20037;-78
2023/07/18 06:57:38;;;;;;;16.90;4.85;;;;;;;17.11;100.00;102011.47;4878092;29;20061;-79
2023/07/18 07:00:11;;;;;;;12.70;5.35;;;;;;;17.13;100.00;102018.56;4889204;29;20053;-79
2023/07/18 07:02:39;;;;;;;8.60;4.63;;;;;;;17.18;100.00;102013.19;4893049;29;20048;-79
2023/07/18 07:05:08;;;;;;;17.23;5.75;;;;;;;17.20;100.00;102008.78;4829444;29;20504;-79
2023/07/18 07:07:35;;;;;;;14.27;4.53;;;;;;;17.24;100.00;102007.84;4887387;29;20431;-79
2023/07/18 07:10:08;;;;;;;19.08;4.78;;;;;;;17.31;100.00;101996.22;4846987;29;20045;-80
2023/07/18 07:12:36;;;;;;;13.38;5.32;;;;;;;17.39;100.00;101997.97;4858918;29;20056;-79
2023/07/18 07:15:05;;;;;;;23.98;5.82;;;;;;;17.44;100.00;101997.03;4874487;29;20049;-79
2023/07/18 07:17:32;;;;;;;13.25;5.70;;;;;;;17.48;100.00;101993.47;4902541;29;20055;-79
2023/07/18 07:20:00;;;;;;;15.90;5.25;;;;;;;17.56;100.00;101992.53;4846001;29;20048;-78
2023/07/18 07:22:28;;;;;;;12.13;5.18;;;;;;;17.62;100.00;101989.84;4832561;29;20072;-79
2023/07/18 07:24:56;;;;;;;16.40;5.53;;;;;;;17.69;100.00;101996.84;4878826;29;20499;-79
2023/07/18 07:27:23;;;;;;;15.00;5.10;;;;;;;17.77;100.00;101996.78;4863766;29;20060;-79
2023/07/18 07:29:53;;;;;;;18.10;5.93;;;;;;;17.84;100.00;101988.75;4878540;29;20496;-79
2023/07/18 07:32:20;;;;;;;12.35;5.32;;;;;;;18.08;100.00;101979.66;4887134;29;20040;-79
2023/07/18 07:34:48;;;;;;;15.15;5.40;;;;;;;18.41;100.00;101981.97;4901443;29;20075;-79
2023/07/18 07:37:15;;;;;;;18.50;4.68;;;;;;;18.66;100.00;101972.78;4821960;29;20543;-78
2023/07/18 07:39:44;;;;;;;11.98;4.38;;;;;;;18.79;100.00;101975.28;4864670;29;20420;-77
2023/07/18 07:42:11;;;;;;;17.40;5.47;;;;;;;18.82;100.00;101977.94;4841461;29;20079;-79
2023/07/18 07:44:40;;;;;;;15.27;5.20;;;;;;;18.82;100.00;101978.81;4868186;29;20105;-79
2023/07/18 07:47:08;;;;;;;15.60;4.80;;;;;;;18.86;100.00;101979.69;4885625;29;20048;-80
2023/07/18 07:49:38;;;;;;;18.10;5.40;;;;;;;19.01;100.00;101978.59;4862100;29;20060;-79
2023/07/18 07:52:06;;;;;;;12.82;4.30;;;;;;;19.22;100.00;101978.25;4845909;29;20036;-79
2023/07/18 07:54:33;;;;;;;11.30;4.32;;;;;;;19.42;100.00;101980.66;4860400;29;20084;-79
2023/07/18 07:57:01;;;;;;;11.50;4.00;;;;;;;19.45;100.00;101979.69;4869925;29;20049;-79
2023/07/18 07:59:29;;;;;;;11.23;4.43;;;;;;;19.36;100.00;101977.19;4870871;29;20056;-80
2023/07/18 08:01:56;;;;;;;14.65;4.75;;;;;;;19.38;100.00;101973.59;4863416;29;20052;-80
2023/07/18 08:04:24;;;;;;;13.88;3.72;;;;;;;19.50;100.00;101982.31;4874602;29;20424;-80
2023/07/18 08:06:55;;;;;;;10.65;3.40;;;;;;;19.66;100.00;101979.38;4895614;29;20055;-80
2023/07/18 08:09:23;;;;;;;13.77;3.65;;;;;;;19.74;100.00;101973.94;4832424;29;20063;-81
2023/07/18 08:11:51;;;;;;;10.55;3.10;;;;;;;19.77;100.00;101973.88;4888136;29;20053;-81
2023/07/18 08:14:18;;;;;;;10.80;4.38;;;;;;;19.72;100.00;101978.41;4859621;29;20048;-81
2023/07/18 08:16:45;;;;;;;9.18;3.20;;;;;;;19.67;100.00;101975.78;4892989;29;20071;-81
2023/07/18 08:19:13;;;;;;;9.73;3.17;;;;;;;19.71;100.00;101975.72;4875710;29;20060;-81
2023/07/18 08:21:41;;;;;;;9.23;2.90;;;;;;;19.74;100.00;101979.28;4880008;29;20075;-80
2023/07/18 08:24:08;;;;;;;9.10;2.15;;;;;;;19.76;100.00;101981.94;4837956;29;20052;-80
2023/07/18 08:26:36;;;;;;;7.13;2.10;;;;;;;19.92;100.00;101974.50;4858893;29;20056;-82
2023/07/18 08:29:03;;;;;;;8.90;2.63;;;;;;;20.08;100.00;101975.13;4879992;29;20064;-82
2023/07/18 08:31:30;;;;;;;6.00;2.10;;;;;;;20.16;100.00;101971.38;4853542;29;20051;-82
2023/07/18 08:33:58;;;;;;;6.28;2.40;;;;;;;20.28;100.00;101980.09;4881157;29;20047;-80
2023/07/18 08:36:26;;;;;;;6.88;2.53;;;;;;;20.30;100.00;101978.25;4891401;29;20056;-80
2023/07/18 08:38:55;;;;;;;7.05;2.45;;;;;;;20.24;100.00;101976.59;4808963;29;20298;-80
2023/07/18 08:41:22;;;;;;;6.78;2.30;;;;;;;20.24;100.00;101972.13;4882912;29;20057;-80
2023/07/18 08:43:50;;;;;;;12.07;2.50;;;;;;;20.26;100.00;101969.41;4835494;29;20053;-80
2023/07/18 08:46:18;;;;;;;6.15;2.35;;;;;;;20.22;100.00;101970.38;4870855;29;20045;-80
2023/07/18 08:48:48;;;;;;;14.82;3.10;;;;;;;20.27;100.00;101962.28;4893366;29;20052;-80
2023/07/18 08:51:15;;;;;;;8.80;2.42;;;;;;;20.23;100.00;101965.00;4892604;29;20055;-80
2023/07/18 08:53:45;;;;;;;9.80;2.47;;;;;;;20.18;100.00;101969.56;4849848;29;20129;-81
2023/07/18 08:56:12;;;;;;;5.97;2.70;;;;;;;20.11;100.00;101965.22;4836467;29;20048;-80
2023/07/18 08:58:40;;;;;;;6.78;1.98;;;;;;;20.20;100.00;101964.19;4861866;29;20045;-79
2023/07/18 09:01:08;;;;;;;8.07;2.03;;;;;;;20.27;100.00;101954.25;4891601;29;20048;-79
2023/07/18 09:03:36;;;;;;;9.70;2.72;;;;;;;20.27;100.00;101947.09;4859577;29;20052;-81
2023/07/18 09:06:16;;;;;;;6.72;2.08;;;;;;;20.25;100.00;101941.75;4876935;29;20420;-81
2023/07/18 09:08:43;;;;;;;4.60;1.70;;;;;;;20.21;100.00;101942.75;4891081;29;20448;-79
2023/07/18 09:11:14;;;;;;;5.45;1.95;;;;;;;20.21;100.00;101949.91;4822600;29;20059;-81
2023/07/18 09:13:44;;;;;;;5.45;1.92;;;;;;;20.24;100.00;101940.03;4872015;29;20069;-80
2023/07/18 09:16:17;;;;;;;5.93;1.92;;;;;;;20.34;100.00;101943.38;4872564;29;20048;-79
2023/07/18 09:18:48;;;;;;;4.93;2.05;;;;;;;20.42;100.00;101932.53;4878716;29;20048;-81
2023/07/18 09:21:18;;;;;;;3.45;1.90;;;;;;;20.47;100.00;101941.31;4887481;29;20049;-81
2023/07/18 09:23:47;;;;;;;8.35;2.70;;;;;;;20.54;100.00;101932.25;4887018;29;20057;-81
2023/07/18 09:26:17;;;;;;;7.00;2.17;;;;;;;20.61;100.00;101925.88;4852294;29;20414;-81
2023/07/18 09:28:48;;;;;;;5.60;2.20;;;;;;;20.67;100.00;101935.59;4871020;29;20526;-80
2023/07/18 09:31:17;;;;;;;6.72;2.72;;;;;;;20.77;100.00;101917.50;4889388;29;20052;-80
2023/07/18 09:33:47;;;;;;;6.83;1.87;;;;;;;20.84;100.00;101925.38;4842097;29;20858;-80
2023/07/18 09:36:20;;;;;;;6.45;1.58;;;;;;;20.83;100.00;101923.63;4890065;29;20415;-80
2023/07/18 09:38:49;;;;;;;9.77;2.22;;;;;;;20.84;100.00;101932.53;4870036;29;20059;-80
2023/07/18 09:41:19;;;;;;;5.53;1.70;;;;;;;20.87;100.00;101929.81;4854428;29;20074;-80
2023/07/18 09:43:49;;;;;;;5.88;2.00;;;;;;;20.86;100.00;101925.34;4868828;29;20052;-79
2023/07/18 09:46:17;;;;;;;3.50;1.63;;;;;;;20.95;100.00;101926.94;4858108;29;20535;-79
2023/07/18 09:48:45;;;;;;;6.53;2.08;;;;;;;21.15;100.00;101922.00;4875886;29;20065;-81
2023/07/18 09:51:20;;;;;;;4.03;1.50;;;;;;;21.34;100.00;101921.53;4860396;29;20064;-82
2023/07/18 09:53:48;;;;;;;2.95;1.20;;;;;;;21.42;100.00;101920.44;4882787;29;20045;-81
2023/07/18 09:56:17;;;;;;;4.78;1.65;;;;;;;21.41;100.00;101929.38;4828869;29;20064;-81
2023/07/18 09:58:46;;;;;;;3.28;1.17;;;;;;;21.34;100.00;101924.22;4865316;29;20071;-81
2023/07/18 10:01:20;;;;;;;3.33;1.58;;;;;;;21.27;100.00;101920.81;4850749;29;20063;-81
2023/07/18 10:03:49;;;;;;;3.58;1.45;;;;;;;21.26;100.00;101926.22;4893552;29;20048;-81
2023/07/18 10:06:17;;;;;;;4.55;1.75;;;;;;;21.26;100.00;101926.22;4848110;29;20059;-80
2023/07/18 10:08:46;;;;;;;7.13;1.48;;;;;;;21.27;100.00;101917.25;4888282;29;20048;-81
2023/07/18 10:11:14;;;;;;;4.93;1.48;;;;;;;21.25;100.00;101911.94;4834464;29;20056;-81
2023/07/18 10:14:03;;;;;;;3.90;1.48;;;;;;;21.23;100.00;101903.06;4851192;29;21753;-81
2023/07/18 10:16:34;;;;;;;6.63;1.80;;;;;;;21.30;100.00;101907.31;4875217;29;20033;-81
2023/07/18 10:19:19;;;;;;;4.00;1.40;;;;;;;21.37;100.00;101902.69;4872389;29;20048;-80
2023/07/18 10:21:47;;;;;;;5.15;1.52;;;;;;;21.54;100.00;101902.31;4868866;29;20063;-80
2023/07/18 10:24:24;;;;;;;4.22;1.50;;;;;;;21.77;100.00;101899.00;4875704;29;20048;-81
2023/07/18 10:26:54;;;;;;;4.93;1.60;;;;;;;21.95;100.00;101889.59;4845084;29;20048;-80
2023/07/18 10:29:22;;;;;;;4.35;1.60;;;;;;;22.18;100.00;101881.75;4888002;29;20040;-80
2023/07/18 10:31:53;;;;;;;5.70;2.08;;;;;;;22.44;100.00;101879.25;4841226;29;20052;-81
2023/07/18 10:34:20;;;;;;;3.50;1.50;;;;;;;22.62;100.00;101877.81;4878820;29;20052;-81
2023/07/18 10:37:01;;;;;;;6.45;1.83;;;;;;;22.71;99.52;101872.16;4856525;29;20060;-81
2023/07/18 10:39:39;;;;;;;5.80;2.38;;;;;;;22.66;99.77;101880.34;4873153;29;20045;-81
2023/07/18 10:42:09;;;;;;;3.00;1.45;;;;;;;22.51;97.49;101870.97;4890529;29;20053;-80
2023/07/18 10:44:37;;;;;;;3.67;1.88;;;;;;;22.43;98.25;101872.13;4813034;29;20048;-82
2023/07/18 10:47:15;;;;;;;6.57;1.38;;;;;;;22.47;99.69;101874.66;4864675;29;20047;-79
2023/07/18 10:49:47;;;;;;;6.38;1.60;;;;;;;22.44;99.79;101868.50;4853792;29;20405;-81
2023/07/18 10:52:16;;;;;;;5.78;1.50;;;;;;;22.33;99.53;101858.97;4878566;29;20052;-79
2023/07/18 10:54:50;;;;;;;8.57;2.03;;;;;;;22.28;99.07;101868.09;4885222;29;20515;-80
2023/07/18 10:57:28;;;;;;;4.95;1.85;;;;;;;22.24;100.00;101859.22;4887918;29;20048;-81
2023/07/18 10:59:57;;;;;;;7.97;1.90;;;;;;;22.41;100.00;101855.19;4845905;29;20426;-79
2023/07/18 11:02:26;;;;;;;3.85;1.77;;;;;;;22.50;99.99;101855.78;4879851;29;20527;-79
2023/07/18 11:04:53;;;;;;;4.07;1.55;;;;;;;22.58;100.00;101848.34;4883979;29;20053;-79
2023/07/18 11:07:34;;;;;;;9.25;1.77;;;;;;;22.73;100.00;101840.75;4867243;29;20052;-79
2023/07/18 11:10:03;;;;;;;4.47;1.55;;;;;;;22.93;99.48;101840.09;4860587;29;20060;-80
2023/07/18 11:12:31;;;;;;;6.47;1.63;;;;;;;22.99;98.59;101845.28;4865112;29;20425;-80
2023/07/18 11:14:58;;;;;;;7.80;1.67;;;;;;;23.01;97.90;101840.72;4818052;29;20763;-80
2023/07/18 11:17:27;;;;;;;6.68;1.77;;;;;;;22.96;98.49;101851.63;4861175;29;20048;-80
2023/07/18 11:19:58;;;;;;;5.95;1.83;;;;;;;22.81;97.92;101864.69;4863141;29;20059;-80